Al Cenac — WDD5445 — position and weather

sailwx.info

Track history (hours):
 
Tides and Currents Weather Stations Pressure Air Temp Water Temp Dewpoint Dewpoint Depression Visibility Wind Speed Wind Dir Waves Ship Positions

Al Cenac

Owner: Caillou Island Towing Co, Inc., Houma, LA. More information available from US FCC via Universal Licensing System and Coast Guard Vessel Documentation Center.

Last reported at 2014-Oct-22 06:26 UTC. Time now 2014-Oct-22 06:38 UTC.
Position N 40°38' W 074°08'.

; draft 10 m.

MMSI: 367158530.

Date/timePositionNaut miles runAvg speedWind from/ knotsBaromVisibWave heightAir tempDewpointWater temp
2014-Oct-22 06:26N 40°38' W 074°08'0 0.0
2014-Oct-22 02:19N 40°38' W 074°08'0 0.0
2014-Oct-22 01:32N 40°38' W 074°08'1 0.3
2014-Oct-21 23:30N 40°39' W 074°07'1 0.9
2014-Oct-21 22:28N 40°39' W 074°06'2 1.6
2014-Oct-21 21:29N 40°38' W 074°08'0 0.0
2014-Oct-21 18:10N 40°38' W 074°08'0 0.0
2014-Oct-21 17:29N 40°38' W 074°08'1 1.1
2014-Oct-21 16:19N 40°38' W 074°09'0 0.0
2014-Oct-21 15:28N 40°38' W 074°09'1 0.4
2014-Oct-21 12:29N 40°38' W 074°08'0 0.0
2014-Oct-21 11:33N 40°38' W 074°08'2 1.6
2014-Oct-21 10:32N 40°39' W 074°06'2 1.6
2014-Oct-21 09:32N 40°38' W 074°08'0 0.0
2014-Oct-21 08:32N 40°38' W 074°08'0 0.0
2014-Oct-21 07:33N 40°38' W 074°08'0 0.0
2014-Oct-21 03:06N 40°38' W 074°08'0 0.0
2014-Oct-20 22:09N 40°38' W 074°08'0 0.0
2014-Oct-20 21:28N 40°38' W 074°08'0 0.0
2014-Oct-20 20:28N 40°38' W 074°08'0 0.0
2014-Oct-20 19:29N 40°38' W 074°08'0 0.0
2014-Oct-20 12:14N 40°38' W 074°08'0 0.0
2014-Oct-20 11:27N 40°38' W 074°08'0 0.0
2014-Oct-20 10:33N 40°38' W 074°08'0 0.0
2014-Oct-20 09:28N 40°38' W 074°08'0 0.0
2014-Oct-20 08:28N 40°38' W 074°08'0 0.0
2014-Oct-20 07:29N 40°38' W 074°08'0 0.0
2014-Oct-19 23:17N 40°38' W 074°08'1 1.5
2014-Oct-19 22:33N 40°39' W 074°07'1 0.9
2014-Oct-19 21:33N 40°39' W 074°08'0 0.1
2014-Oct-19 18:22N 40°38' W 074°08'0 0.0
2014-Oct-19 16:14N 40°38' W 074°08'0 0.0
2014-Oct-19 11:23N 40°38' W 074°08'3 0.8
2014-Oct-19 07:33N 40°38' W 074°12'3 0.8
2014-Oct-19 04:23N 40°36' W 074°12'4 4.7
2014-Oct-19 03:28N 40°38' W 074°08'0 0.0
2014-Oct-19 02:24N 40°38' W 074°08'0 0.0
2014-Oct-19 01:07N 40°38' W 074°08'0 0.0
2014-Oct-19 00:20N 40°38' W 074°08'0 0.0
2014-Oct-18 18:33N 40°39' W 074°08'3 2.7
2014-Oct-18 17:33N 40°38' W 074°12'2 1.4
2014-Oct-18 16:28N 40°38' W 074°09'1 0.1
2014-Oct-18 06:32N 40°38' W 074°08'0 0.0
2014-Oct-18 02:09N 40°39' W 074°08'4 6.6
2014-Oct-18 01:33N 40°36' W 074°12'2 0.3
2014-Oct-17 19:21N 40°38' W 074°12'1 0.8
2014-Oct-17 17:30N 40°39' W 074°10'2 0.4
2014-Oct-17 13:09N 40°38' W 074°08'5 7.8
2014-Oct-17 12:33N 40°41' W 074°02'6 5.5
2014-Oct-17 11:32N 40°46' W 073°60'1 0.9
2014-Oct-17 10:33N 40°45' W 074°01'8 8.3
2014-Oct-17 09:33N 40°39' W 074°07'1 0.1
2014-Oct-17 02:28N 40°38' W 074°08'3 0.6
2014-Oct-16 20:33N 40°38' W 074°12'2 1.8
2014-Oct-16 19:33N 40°39' W 074°10'0 0.0
2014-Oct-16 18:26N 40°39' W 074°10'1 0.2
2014-Oct-16 15:33N 40°39' W 074°11'1 0.4
2014-Oct-16 13:16N 40°38' W 074°10'2 0.1
2014-Oct-15 21:13N 40°38' W 074°08'0 0.0
2014-Oct-15 17:04N 40°38' W 074°08'0 0.0
2014-Oct-15 16:26N 40°38' W 074°08'0 0.0
2014-Oct-15 12:17N 40°38' W 074°08'0 0.0
2014-Oct-15 11:24N 40°38' W 074°08'0 0.0
2014-Oct-15 10:15N 40°38' W 074°08'0 0.0
2014-Oct-15 09:31N 40°38' W 074°08'0 0.0
2014-Oct-15 08:29N 40°38' W 074°08'0 0.0
2014-Oct-15 07:33N 40°38' W 074°08'1 0.8
2014-Oct-15 06:14N 40°39' W 074°07'1 0.7
2014-Oct-15 05:29N 40°39' W 074°06'1 1.5
2014-Oct-15 04:31N 40°38' W 074°08'0 0.0
2014-Oct-15 03:28N 40°38' W 074°08'0 0.0
2014-Oct-15 02:26N 40°38' W 074°08'0 0.0
2014-Oct-15 01:21N 40°38' W 074°08'0 0.0
2014-Oct-15 00:27N 40°38' W 074°08'0 0.0
2014-Oct-14 23:22N 40°38' W 074°08'0 0.0
2014-Oct-14 21:23N 40°38' W 074°08'0 0.0
2014-Oct-14 20:24N 40°38' W 074°08'0 0.0
2014-Oct-14 18:31N 40°38' W 074°08'4 3.7
2014-Oct-14 17:33N 40°37' W 074°12'1 0.5
2014-Oct-14 16:31N 40°36' W 074°12'1 0.7
2014-Oct-14 15:31N 40°36' W 074°12'1 1.3
2014-Oct-14 14:27N 40°37' W 074°12'4 1.1
2014-Oct-14 11:16N 40°38' W 074°08'0 0.0
2014-Oct-13 16:24N 40°38' W 074°08'0 0.0
2014-Oct-13 14:31N 40°38' W 074°08'2 0.5
2014-Oct-13 11:17N 40°38' W 074°10'0 0.0
2014-Oct-13 10:29N 40°38' W 074°10'2 1.5
2014-Oct-13 09:11N 40°38' W 074°12'1 1.4
2014-Oct-13 08:17N 40°36' W 074°12'0 0.0
2014-Oct-13 07:19N 40°36' W 074°12'2 0.3
2014-Oct-12 23:06N 40°39' W 074°11'3 0.2
2014-Oct-12 09:17N 40°38' W 074°08'0 0.0
2014-Oct-12 08:33N 40°38' W 074°08'0 0.0
2014-Oct-12 07:33N 40°38' W 074°08'  
Track history (hours):
 
Tides and Currents Weather Stations Pressure Air Temp Water Temp Dewpoint Dewpoint Depression Visibility Wind Speed Wind Dir Waves Ship Positions

Al Cenac

Owner: Caillou Island Towing Co, Inc., Houma, LA. More information available from US FCC via Universal Licensing System and Coast Guard Vessel Documentation Center.

Last reported at 2014-Oct-22 06:26 UTC. Time now 2014-Oct-22 06:38 UTC.
Position N 40°38' W 074°08'.

; draft 10 m.

MMSI: 367158530.

Date/timePositionNaut miles runAvg speedWind from/ knotsBaromVisibWave heightAir tempDewpointWater temp
2014-Oct-22 06:26N 40°38' W 074°08'0 0.0
2014-Oct-22 02:19N 40°38' W 074°08'0 0.0
2014-Oct-22 01:32N 40°38' W 074°08'1 0.3
2014-Oct-21 23:30N 40°39' W 074°07'1 0.9
2014-Oct-21 22:28N 40°39' W 074°06'2 1.6
2014-Oct-21 21:29N 40°38' W 074°08'0 0.0
2014-Oct-21 18:10N 40°38' W 074°08'0 0.0
2014-Oct-21 17:29N 40°38' W 074°08'1 1.1
2014-Oct-21 16:19N 40°38' W 074°09'0 0.0
2014-Oct-21 15:28N 40°38' W 074°09'1 0.4
2014-Oct-21 12:29N 40°38' W 074°08'0 0.0
2014-Oct-21 11:33N 40°38' W 074°08'2 1.6
2014-Oct-21 10:32N 40°39' W 074°06'2 1.6
2014-Oct-21 09:32N 40°38' W 074°08'0 0.0
2014-Oct-21 08:32N 40°38' W 074°08'0 0.0
2014-Oct-21 07:33N 40°38' W 074°08'0 0.0
2014-Oct-21 03:06N 40°38' W 074°08'0 0.0
2014-Oct-20 22:09N 40°38' W 074°08'0 0.0
2014-Oct-20 21:28N 40°38' W 074°08'0 0.0
2014-Oct-20 20:28N 40°38' W 074°08'0 0.0
2014-Oct-20 19:29N 40°38' W 074°08'0 0.0
2014-Oct-20 12:14N 40°38' W 074°08'0 0.0
2014-Oct-20 11:27N 40°38' W 074°08'0 0.0
2014-Oct-20 10:33N 40°38' W 074°08'0 0.0
2014-Oct-20 09:28N 40°38' W 074°08'0 0.0
2014-Oct-20 08:28N 40°38' W 074°08'0 0.0
2014-Oct-20 07:29N 40°38' W 074°08'0 0.0
2014-Oct-19 23:17N 40°38' W 074°08'1 1.5
2014-Oct-19 22:33N 40°39' W 074°07'1 0.9
2014-Oct-19 21:33N 40°39' W 074°08'0 0.1
2014-Oct-19 18:22N 40°38' W 074°08'0 0.0
2014-Oct-19 16:14N 40°38' W 074°08'0 0.0
2014-Oct-19 11:23N 40°38' W 074°08'3 0.8
2014-Oct-19 07:33N 40°38' W 074°12'3 0.8
2014-Oct-19 04:23N 40°36' W 074°12'4 4.7
2014-Oct-19 03:28N 40°38' W 074°08'0 0.0
2014-Oct-19 02:24N 40°38' W 074°08'0 0.0
2014-Oct-19 01:07N 40°38' W 074°08'0 0.0
2014-Oct-19 00:20N 40°38' W 074°08'0 0.0
2014-Oct-18 18:33N 40°39' W 074°08'3 2.7
2014-Oct-18 17:33N 40°38' W 074°12'2 1.4
2014-Oct-18 16:28N 40°38' W 074°09'1 0.1
2014-Oct-18 06:32N 40°38' W 074°08'0 0.0
2014-Oct-18 02:09N 40°39' W 074°08'4 6.6
2014-Oct-18 01:33N 40°36' W 074°12'2 0.3
2014-Oct-17 19:21N 40°38' W 074°12'1 0.8
2014-Oct-17 17:30N 40°39' W 074°10'2 0.4
2014-Oct-17 13:09N 40°38' W 074°08'5 7.8
2014-Oct-17 12:33N 40°41' W 074°02'6 5.5
2014-Oct-17 11:32N 40°46' W 073°60'1 0.9
2014-Oct-17 10:33N 40°45' W 074°01'8 8.3
2014-Oct-17 09:33N 40°39' W 074°07'1 0.1
2014-Oct-17 02:28N 40°38' W 074°08'3 0.6
2014-Oct-16 20:33N 40°38' W 074°12'2 1.8
2014-Oct-16 19:33N 40°39' W 074°10'0 0.0
2014-Oct-16 18:26N 40°39' W 074°10'1 0.2
2014-Oct-16 15:33N 40°39' W 074°11'1 0.4
2014-Oct-16 13:16N 40°38' W 074°10'2 0.1
2014-Oct-15 21:13N 40°38' W 074°08'0 0.0
2014-Oct-15 17:04N 40°38' W 074°08'0 0.0
2014-Oct-15 16:26N 40°38' W 074°08'0 0.0
2014-Oct-15 12:17N 40°38' W 074°08'0 0.0
2014-Oct-15 11:24N 40°38' W 074°08'0 0.0
2014-Oct-15 10:15N 40°38' W 074°08'0 0.0
2014-Oct-15 09:31N 40°38' W 074°08'0 0.0
2014-Oct-15 08:29N 40°38' W 074°08'0 0.0
2014-Oct-15 07:33N 40°38' W 074°08'1 0.8
2014-Oct-15 06:14N 40°39' W 074°07'1 0.7
2014-Oct-15 05:29N 40°39' W 074°06'1 1.5
2014-Oct-15 04:31N 40°38' W 074°08'0 0.0
2014-Oct-15 03:28N 40°38' W 074°08'0 0.0
2014-Oct-15 02:26N 40°38' W 074°08'0 0.0
2014-Oct-15 01:21N 40°38' W 074°08'0 0.0
2014-Oct-15 00:27N 40°38' W 074°08'0 0.0
2014-Oct-14 23:22N 40°38' W 074°08'0 0.0
2014-Oct-14 21:23N 40°38' W 074°08'0 0.0
2014-Oct-14 20:24N 40°38' W 074°08'0 0.0
2014-Oct-14 18:31N 40°38' W 074°08'4 3.7
2014-Oct-14 17:33N 40°37' W 074°12'1 0.5
2014-Oct-14 16:31N 40°36' W 074°12'1 0.7
2014-Oct-14 15:31N 40°36' W 074°12'1 1.3
2014-Oct-14 14:27N 40°37' W 074°12'4 1.1
2014-Oct-14 11:16N 40°38' W 074°08'0 0.0
2014-Oct-13 16:24N 40°38' W 074°08'0 0.0
2014-Oct-13 14:31N 40°38' W 074°08'2 0.5
2014-Oct-13 11:17N 40°38' W 074°10'0 0.0
2014-Oct-13 10:29N 40°38' W 074°10'2 1.5
2014-Oct-13 09:11N 40°38' W 074°12'1 1.4
2014-Oct-13 08:17N 40°36' W 074°12'0 0.0
2014-Oct-13 07:19N 40°36' W 074°12'2 0.3
2014-Oct-12 23:06N 40°39' W 074°11'3 0.2
2014-Oct-12 09:17N 40°38' W 074°08'0 0.0
2014-Oct-12 08:33N 40°38' W 074°08'0 0.0
2014-Oct-12 07:33N 40°38' W 074°08'  

Dump ship's entire track history